ADDS METAR Data INFO
IDs: Format: Raw Decoded Include TAF

Data at: 0749 UTC 24 Oct 2017

KBTM 240653Z AUTO 35005KT 10SM CLR 00/M04 A3068 RMK AO2 SLP404 T00001039 401001017
KBTM 240553Z AUTO 36004KT 10SM CLR M01/M04 A3069 RMK AO2 SLP409 T10111039 10083 21017 53006
KBTM 240453Z AUTO 00000KT 10SM CLR M01/M04 A3068 RMK AO2 SLP409 T10061039
KBTM 240353Z AUTO 29003KT 10SM CLR M01/M04 A3068 RMK AO2 SLP411 T10061039
KBTM 240253Z AUTO 11003KT 10SM CLR 01/M03 A3067 RMK AO2 SLP410 T00111033 52015
KBTM 240153Z AUTO 31005KT 10SM CLR 04/M03 A3066 RMK AO2 SLP397 T00391033
KBTM 240053Z AUTO 33005KT 10SM CLR 06/M03 A3063 RMK AO2 SLP387 T00561033
KBTM 232353Z AUTO 33008KT 10SM CLR 08/M04 A3062 RMK AO2 SLP370 T00831044 10100 20072 51003
KBTM 232253Z AUTO 31010KT 10SM CLR 09/M05 A3062 RMK AO2 SLP369 T00891050
KBTM 232153Z AUTO 31012KT 10SM CLR 09/M06 A3061 RMK AO2 SLP365 T00941061
KBTM 232053Z AUTO 33012KT 10SM CLR 09/M06 A3061 RMK AO2 SLP364 T00941056 50001
KBTM 231953Z AUTO 31010KT 10SM CLR 08/M06 A3061 RMK AO2 SLP368 T00831056
KBTM 231853Z AUTO 31014G20KT 10SM CLR 08/M06 A3061 RMK AO2 SLP367 T00781056
KBTM 231753Z AUTO 31011KT 10SM CLR 07/M04 A3061 RMK AO2 SLP368 T00721044 10072 20006 51017
KBTM 231653Z AUTO 30012G17KT 10SM CLR 06/M04 A3060 RMK AO2 SLP369 T00561044
KBTM 231553Z AUTO 05004KT 10SM CLR 05/M04 A3058 RMK AO2 SLP362 T00501044
KBTM 231453Z AUTO VRB03KT 10SM CLR 02/M04 A3055 RMK AO2 SLP358 T00171044 53019
KBTM 231353Z AUTO 27005KT 10SM CLR 03/M05 A3051 RMK AO2 SLP341 T00281050
KBTM 231253Z AUTO 32007KT 10SM CLR 01/M03 A3049 RMK AO2 SLP340 T00111028
KBTM 231153Z AUTO 29005KT 10SM SCT047 OVC055 03/M03 A3048 RMK AO2 SLP324 T00331028 10044 20028 53021
KBTM 231053Z AUTO 29005KT 10SM SCT045 OVC055 03/M03 A3045 RMK AO2 SLP309 T00331028
KBTM 230953Z AUTO 34003KT 10SM OVC048 03/M03 A3042 RMK AO2 SLP304 T00331028
KBTM 230853Z AUTO 00000KT 10SM SCT060 BKN090 03/M02 A3041 RMK AO2 SLP295 T00331022 53013
KBTM 230753Z AUTO 00000KT 10SM OVC050 03/M02 A3039 RMK AO2 SLP285 T00331017
KBTM 230653Z AUTO 27008KT 10SM FEW049 BKN060 OVC075 04/M03 A3037 RMK AO2 SLP275 T00441028 401110033
KBTM 230553Z AUTO 26005KT 10SM BKN070 OVC085 04/M04 A3036 RMK AO2 SLP275 60000 T00391039 10078 20033 52024
KBTM 230453Z AUTO 22007KT 10SM FEW065 BKN080 04/M03 A3034 RMK AO2 SLP267 T00391033
KBTM 230353Z AUTO 25009G16KT 10SM BKN070 05/M03 A3030 RMK AO2 SLP253 T00501028
KBTM 230253Z AUTO 26008KT 10SM FEW050 04/M01 A3028 RMK AO2 RAB0156E13 SLP247 P0000 60000 T00441011 51035
KBTM 230153Z AUTO 28009KT 10SM OVC050 04/00 A3026 RMK AO2 RAB20E53 SLP239 P0000 T00440000
KBTM 230053Z AUTO 31009KT 10SM BKN050 OVC060 04/M01 A3021 RMK AO2 PK WND 30027/0015 WSHFT 0007 SLP226 T00441006
KBTM 230027Z AUTO 31017G26KT 10SM OVC055 05/00 A3020 RMK AO2 PK WND 30027/0015 WSHFT 0007 T00500000
KBTM 222353Z AUTO 28008KT 10SM BKN060 08/M01 A3016 RMK AO2 PK WND 26028/2257 SLP199 60000 T00781011 10111 20072 53032
KBTM 222253Z AUTO 27018G29KT 10SM FEW050 FEW085 09/M02 A3011 RMK AO2 PK WND 26029/2248 SLP184 T00891017
KBTM 222153Z AUTO 34012G20KT 10SM FEW018 BKN041 BKN048 07/03 A3009 RMK AO2 WSHFT 2041 RAE12B30E50 SLP177 P0000 T00720033
KBTM 222101Z AUTO 30011G19KT 9SM -RA FEW030 BKN044 OVC060 08/04 A3005 RMK AO2 WSHFT 2041 P0000 T00780044
KBTM 222053Z AUTO 31014G20KT 9SM -RA SCT029 BKN040 OVC070 09/04 A3005 RMK AO2 PK WND 26031/2009 RAB1954E04B50 PRESRR SLP160 P0000 60000 T00890039 53017
KBTM 221953Z AUTO 25014G23KT 10SM BKN041 OVC048 11/03 A3000 RMK AO2 PK WND 26027/1922 RAE09 SLP144 P0000 T01060028